Time;durP1;ratioP1;P1;durP2;ratioP2;P2;SDS_P1;SDS_P2;PMS_P1;PMS_P2;Temp;Humidity;BMP_temperature;BMP_pressure;BME280_temperature;BME280_humidity;BME280_pressure;Samples;Min_cycle;Max_cycle;Signal;HPM_P1;HPM_P2
2023/12/27 00:00:45;;;;;;;22.17;8.80;;;;;;;;;;5076436;28;20780;-82
2023/12/27 00:03:11;;;;;;;16.55;7.43;;;;;;;;;;5075770;28;20439;-82
2023/12/27 00:05:37;;;;;;;17.25;6.25;;;;;;;;;;5056108;28;20915;-82
2023/12/27 00:08:04;;;;;;;18.15;5.03;;;;;;;;;;5056156;28;20400;-82
2023/12/27 00:10:30;;;;;;;18.42;4.60;;;;;;;;;;5055686;28;20404;-82
2023/12/27 00:12:56;;;;;;;15.38;4.63;;;;;;;;;;5066954;28;20398;-82
2023/12/27 00:15:22;;;;;;;16.33;4.85;;;;;;;;;;5055336;28;20426;-82
2023/12/27 00:17:48;;;;;;;20.17;5.15;;;;;;;;;;5086840;28;20424;-82
2023/12/27 00:20:14;;;;;;;16.67;5.45;;;;;;;;;;5088892;28;20400;-82
2023/12/27 00:22:40;;;;;;;20.65;5.82;;;;;;;;;;5090001;28;20395;-81
2023/12/27 00:25:07;;;;;;;15.05;5.05;;;;;;;;;;5088848;28;20408;-82
2023/12/27 00:27:33;;;;;;;17.42;5.68;;;;;;;;;;5068001;28;20481;-82
2023/12/27 00:29:59;;;;;;;15.90;5.20;;;;;;;;;;5057855;28;20755;-81
2023/12/27 00:32:25;;;;;;;13.27;3.63;;;;;;;;;;5039963;28;20430;-81
2023/12/27 00:34:51;;;;;;;13.05;3.40;;;;;;;;;;5097911;28;20442;-81
2023/12/27 00:37:17;;;;;;;16.10;3.22;;;;;;;;;;5074934;28;20394;-81
2023/12/27 00:39:44;;;;;;;17.73;3.30;;;;;;;;;;5077905;28;20479;-81
2023/12/27 00:42:11;;;;;;;14.70;3.60;;;;;;;;;;5055142;28;20400;-81
2023/12/27 00:44:37;;;;;;;17.55;3.90;;;;;;;;;;5114369;27;20426;-81
2023/12/27 00:47:03;;;;;;;11.13;2.80;;;;;;;;;;5111912;27;20436;-82
2023/12/27 00:49:29;;;;;;;15.18;3.60;;;;;;;;;;5082470;28;20438;-82
2023/12/27 00:51:55;;;;;;;13.00;3.42;;;;;;;;;;5074711;28;20393;-82
2023/12/27 00:54:21;;;;;;;12.38;2.97;;;;;;;;;;5074229;28;20418;-82
2023/12/27 00:56:48;;;;;;;9.85;3.10;;;;;;;;;;5095073;28;20457;-82
2023/12/27 00:59:14;;;;;;;14.32;3.78;;;;;;;;;;5103269;28;20400;-82
2023/12/27 01:01:41;;;;;;;18.63;4.13;;;;;;;;;;5088221;28;20983;-82
2023/12/27 01:04:07;;;;;;;10.95;3.25;;;;;;;;;;5117567;27;20449;-81
2023/12/27 01:06:33;;;;;;;16.20;3.57;;;;;;;;;;5075109;28;20484;-82
2023/12/27 01:08:59;;;;;;;12.57;3.30;;;;;;;;;;5107702;28;20413;-82
2023/12/27 01:11:27;;;;;;;15.35;3.78;;;;;;;;;;5082861;28;20405;-83
2023/12/27 01:13:53;;;;;;;12.88;3.30;;;;;;;;;;5053177;28;20400;-82
2023/12/27 01:16:19;;;;;;;14.77;3.63;;;;;;;;;;5072448;28;21118;-83
2023/12/27 01:18:45;;;;;;;14.98;4.07;;;;;;;;;;5091518;28;20409;-83
2023/12/27 01:21:13;;;;;;;18.23;4.47;;;;;;;;;;5045518;28;20396;-83
2023/12/27 01:23:40;;;;;;;10.52;3.38;;;;;;;;;;5071530;28;20404;-83
2023/12/27 01:26:06;;;;;;;12.23;3.45;;;;;;;;;;5093606;28;20940;-83
2023/12/27 01:28:32;;;;;;;13.80;3.60;;;;;;;;;;5085257;28;20525;-81
2023/12/27 01:30:58;;;;;;;19.02;3.83;;;;;;;;;;5073414;28;20750;-81
2023/12/27 01:33:25;;;;;;;18.30;4.43;;;;;;;;;;5074802;28;20401;-81
2023/12/27 01:35:51;;;;;;;16.13;4.50;;;;;;;;;;5085106;28;20451;-81
2023/12/27 01:38:17;;;;;;;14.88;4.10;;;;;;;;;;5115122;27;20398;-82
2023/12/27 01:40:50;;;;;;;15.23;4.00;;;;;;;;;;5073176;28;20429;-82
2023/12/27 01:43:16;;;;;;;18.83;4.50;;;;;;;;;;5079710;28;20395;-82
2023/12/27 01:45:42;;;;;;;15.65;4.40;;;;;;;;;;5054655;28;20430;-82
2023/12/27 01:48:09;;;;;;;15.90;4.95;;;;;;;;;;5065088;28;20406;-82
2023/12/27 01:50:35;;;;;;;16.27;4.72;;;;;;;;;;5073738;28;20798;-82
2023/12/27 01:53:02;;;;;;;18.27;4.43;;;;;;;;;;5109683;27;20436;-82
2023/12/27 01:55:28;;;;;;;20.75;4.82;;;;;;;;;;5075390;28;20418;-82
2023/12/27 01:57:54;;;;;;;22.63;5.45;;;;;;;;;;5078743;28;20418;-82
2023/12/27 02:00:20;;;;;;;18.23;4.82;;;;;;;;;;5074813;28;20774;-81
2023/12/27 02:02:47;;;;;;;14.30;4.23;;;;;;;;;;5085305;28;20440;-82
2023/12/27 02:05:13;;;;;;;18.90;4.13;;;;;;;;;;5119139;27;20413;-81
2023/12/27 02:07:41;;;;;;;14.20;4.20;;;;;;;;;;5084522;28;20401;-80
2023/12/27 02:10:07;;;;;;;16.57;4.60;;;;;;;;;;5073774;28;20401;-81
2023/12/27 02:12:33;;;;;;;18.83;4.40;;;;;;;;;;5072465;28;20448;-82
2023/12/27 02:14:59;;;;;;;12.68;4.30;;;;;;;;;;5103622;28;20920;-81
2023/12/27 02:17:26;;;;;;;16.70;4.30;;;;;;;;;;5105705;28;20763;-81
2023/12/27 02:19:53;;;;;;;14.88;4.07;;;;;;;;;;5090964;28;20398;-81
2023/12/27 02:22:20;;;;;;;17.98;4.57;;;;;;;;;;5070685;28;20382;-80
2023/12/27 02:24:48;;;;;;;17.75;4.80;;;;;;;;;;5105727;28;20508;-80
2023/12/27 02:27:14;;;;;;;14.63;4.35;;;;;;;;;;5073400;28;20500;-80
2023/12/27 02:29:40;;;;;;;19.80;4.95;;;;;;;;;;5109907;28;20783;-81
2023/12/27 02:32:08;;;;;;;21.33;4.50;;;;;;;;;;5084529;28;20456;-80
2023/12/27 02:34:34;;;;;;;15.43;4.32;;;;;;;;;;5054746;28;20417;-80
2023/12/27 02:37:00;;;;;;;15.38;4.60;;;;;;;;;;5122572;28;20396;-81
2023/12/27 02:39:26;;;;;;;17.20;4.68;;;;;;;;;;5073879;28;20789;-81
2023/12/27 02:41:52;;;;;;;17.20;4.57;;;;;;;;;;5088430;28;20394;-81
2023/12/27 02:44:18;;;;;;;23.50;5.00;;;;;;;;;;5065842;28;20459;-81
2023/12/27 02:46:44;;;;;;;19.58;4.85;;;;;;;;;;5061177;28;20526;-81
2023/12/27 02:49:11;;;;;;;18.58;5.15;;;;;;;;;;5095830;28;20412;-80
2023/12/27 02:51:37;;;;;;;20.33;5.30;;;;;;;;;;5094217;28;20398;-81
2023/12/27 02:54:03;;;;;;;16.73;5.07;;;;;;;;;;5077807;28;20466;-81
2023/12/27 02:56:29;;;;;;;20.15;5.40;;;;;;;;;;5100706;28;20729;-81
2023/12/27 02:58:55;;;;;;;19.63;5.60;;;;;;;;;;5085024;28;20423;-80
2023/12/27 03:01:21;;;;;;;22.37;5.33;;;;;;;;;;5090981;28;20456;-81
2023/12/27 03:03:47;;;;;;;19.35;5.53;;;;;;;;;;5060507;28;20419;-81
2023/12/27 03:06:13;;;;;;;16.80;5.28;;;;;;;;;;5072600;28;20405;-81
2023/12/27 03:08:39;;;;;;;22.85;5.70;;;;;;;;;;5075801;28;20976;-81
2023/12/27 03:11:08;;;;;;;19.75;5.53;;;;;;;;;;5077529;28;20438;-81
2023/12/27 03:13:34;;;;;;;20.38;5.20;;;;;;;;;;5070839;28;20407;-82
2023/12/27 03:16:07;;;;;;;18.52;5.13;;;;;;;;;;5106956;28;20499;-82
2023/12/27 03:18:34;;;;;;;17.70;5.53;;;;;;;;;;5116845;27;20592;-82
2023/12/27 03:21:00;;;;;;;15.50;5.65;;;;;;;;;;5089215;28;20879;-82
2023/12/27 03:23:26;;;;;;;18.20;5.72;;;;;;;;;;5073445;28;20932;-82
2023/12/27 03:25:54;;;;;;;19.13;5.70;;;;;;;;;;5073762;28;20470;-81
2023/12/27 03:28:20;;;;;;;20.10;5.75;;;;;;;;;;5073550;28;20431;-80
2023/12/27 03:30:46;;;;;;;21.73;5.97;;;;;;;;;;5082055;28;20464;-81
2023/12/27 03:33:12;;;;;;;19.58;5.32;;;;;;;;;;5092902;28;20905;-81
2023/12/27 03:35:38;;;;;;;22.92;5.78;;;;;;;;;;5092600;27;20422;-81
2023/12/27 03:38:05;;;;;;;18.35;5.55;;;;;;;;;;5059142;28;20418;-81
2023/12/27 03:40:31;;;;;;;20.90;6.17;;;;;;;;;;5116871;27;20765;-81
2023/12/27 03:42:57;;;;;;;22.48;6.05;;;;;;;;;;5097841;28;20398;-81
2023/12/27 03:45:23;;;;;;;21.40;5.82;;;;;;;;;;5074660;28;20916;-81
2023/12/27 03:47:49;;;;;;;19.50;5.78;;;;;;;;;;5122250;27;20403;-81
2023/12/27 03:50:16;;;;;;;22.13;6.65;;;;;;;;;;5088968;28;20463;-80
2023/12/27 03:52:43;;;;;;;26.27;6.75;;;;;;;;;;5075847;28;20436;-81
2023/12/27 03:55:10;;;;;;;25.15;7.47;;;;;;;;;;5078506;28;20775;-82
2023/12/27 03:57:36;;;;;;;22.40;7.18;;;;;;;;;;5073715;28;20399;-82
2023/12/27 04:00:02;;;;;;;21.58;7.93;;;;;;;;;;5097185;28;20489;-83
2023/12/27 04:02:29;;;;;;;19.98;7.70;;;;;;;;;;5079929;28;20909;-82
2023/12/27 04:04:55;;;;;;;25.98;9.15;;;;;;;;;;5092726;28;20817;-82
2023/12/27 04:07:21;;;;;;;25.25;9.43;;;;;;;;;;5058041;28;20480;-83
2023/12/27 04:09:47;;;;;;;27.73;9.50;;;;;;;;;;5063294;28;20565;-83
2023/12/27 04:12:13;;;;;;;27.85;10.05;;;;;;;;;;5070070;28;20394;-82
2023/12/27 04:14:39;;;;;;;29.85;10.10;;;;;;;;;;5092839;28;20945;-82
2023/12/27 04:17:05;;;;;;;24.45;9.95;;;;;;;;;;5073645;28;20456;-82
2023/12/27 04:19:31;;;;;;;25.48;10.38;;;;;;;;;;5106374;27;20412;-82
2023/12/27 04:21:57;;;;;;;27.57;10.50;;;;;;;;;;5073102;28;20463;-82
2023/12/27 04:24:23;;;;;;;29.83;11.13;;;;;;;;;;5056696;28;20952;-82
2023/12/27 04:26:49;;;;;;;27.33;11.70;;;;;;;;;;5092494;28;20493;-82
2023/12/27 04:29:15;;;;;;;30.10;11.93;;;;;;;;;;5064669;28;20431;-82
2023/12/27 04:31:41;;;;;;;31.77;12.52;;;;;;;;;;5076127;28;21023;-83
2023/12/27 04:34:07;;;;;;;39.75;12.80;;;;;;;;;;5054820;28;20419;-82
2023/12/27 04:36:35;;;;;;;33.17;12.02;;;;;;;;;;5055837;28;20764;-82
2023/12/27 04:39:01;;;;;;;26.13;12.32;;;;;;;;;;5078091;28;20427;-82
2023/12/27 04:41:27;;;;;;;24.92;11.50;;;;;;;;;;5050446;28;20427;-81
2023/12/27 04:43:53;;;;;;;34.53;12.33;;;;;;;;;;5056608;28;20394;-82
2023/12/27 04:46:19;;;;;;;28.50;12.23;;;;;;;;;;5061515;28;20408;-82
2023/12/27 04:48:48;;;;;;;35.97;12.20;;;;;;;;;;5089308;28;20892;-82
2023/12/27 04:51:14;;;;;;;32.40;11.67;;;;;;;;;;5082043;28;20398;-82
2023/12/27 04:53:40;;;;;;;32.20;12.63;;;;;;;;;;5077044;28;20392;-82
2023/12/27 04:56:07;;;;;;;33.28;12.50;;;;;;;;;;5071719;28;20419;-83
2023/12/27 04:58:35;;;;;;;31.92;12.13;;;;;;;;;;5094581;28;20398;-83
2023/12/27 05:01:06;;;;;;;24.35;11.07;;;;;;;;;;5062978;28;20402;-83
2023/12/27 05:03:37;;;;;;;29.63;11.93;;;;;;;;;;5084190;28;20467;-82
2023/12/27 05:06:05;;;;;;;29.70;11.20;;;;;;;;;;5092942;28;20409;-82
2023/12/27 05:08:31;;;;;;;32.72;12.77;;;;;;;;;;5072164;28;20394;-81
2023/12/27 05:10:57;;;;;;;33.33;12.55;;;;;;;;;;5061451;28;20418;-82
2023/12/27 05:13:23;;;;;;;33.72;12.80;;;;;;;;;;5091698;28;20398;-82
2023/12/27 05:15:50;;;;;;;30.08;13.63;;;;;;;;;;5057239;28;20431;-82
2023/12/27 05:18:16;;;;;;;31.40;14.00;;;;;;;;;;5082826;28;20418;-82
2023/12/27 05:20:42;;;;;;;30.60;13.98;;;;;;;;;;5073212;28;20406;-82
2023/12/27 05:23:08;;;;;;;33.47;14.38;;;;;;;;;;5075834;28;20398;-82
2023/12/27 05:25:34;;;;;;;30.25;13.10;;;;;;;;;;5057402;28;20402;-83
2023/12/27 05:28:00;;;;;;;40.05;15.15;;;;;;;;;;5076909;28;20902;-83
2023/12/27 05:30:26;;;;;;;34.08;13.20;;;;;;;;;;5060913;28;20402;-82
2023/12/27 05:32:52;;;;;;;31.50;12.93;;;;;;;;;;5037754;28;20399;-82
2023/12/27 05:35:18;;;;;;;45.03;13.57;;;;;;;;;;5049024;28;20823;-82
2023/12/27 05:37:44;;;;;;;32.70;12.53;;;;;;;;;;5051235;28;20428;-82
2023/12/27 05:40:10;;;;;;;32.03;12.48;;;;;;;;;;5052758;28;20476;-83
2023/12/27 05:42:36;;;;;;;131.15;21.23;;;;;;;;;;5045934;28;20455;-82
2023/12/27 05:45:03;;;;;;;31.05;11.93;;;;;;;;;;5053874;28;20432;-82
2023/12/27 05:47:29;;;;;;;30.13;12.10;;;;;;;;;;5021598;28;20422;-82
2023/12/27 05:49:55;;;;;;;30.27;12.45;;;;;;;;;;5047935;28;20486;-82
2023/12/27 05:52:21;;;;;;;31.13;12.93;;;;;;;;;;5079065;28;20492;-80
2023/12/27 05:54:47;;;;;;;65.85;13.90;;;;;;;;;;5057710;28;20425;-80
2023/12/27 05:57:14;;;;;;;393.98;38.67;;;;;;;;;;5057288;28;20459;-80
2023/12/27 05:59:40;;;;;;;173.98;24.58;;;;;;;;;;5085957;28;20405;-79
2023/12/27 06:02:06;;;;;;;32.13;12.02;;;;;;;;;;5037022;28;20470;-80
2023/12/27 06:04:32;;;;;;;29.27;11.35;;;;;;;;;;5073132;28;20409;-80
2023/12/27 06:06:58;;;;;;;98.47;15.82;;;;;;;;;;5055930;28;20402;-80
2023/12/27 06:09:24;;;;;;;26.45;10.20;;;;;;;;;;5051999;28;20410;-81
2023/12/27 06:11:50;;;;;;;24.63;10.18;;;;;;;;;;5055137;28;20398;-81
2023/12/27 06:14:16;;;;;;;81.20;15.03;;;;;;;;;;5047045;28;20504;-81
2023/12/27 06:16:43;;;;;;;25.45;9.85;;;;;;;;;;5056435;28;20414;-81
2023/12/27 06:19:09;;;;;;;20.45;9.43;;;;;;;;;;5062995;28;20910;-81
2023/12/27 06:21:35;;;;;;;247.52;27.95;;;;;;;;;;5082068;28;20412;-81
2023/12/27 06:24:01;;;;;;;67.20;11.35;;;;;;;;;;5088577;28;20458;-82
2023/12/27 06:26:27;;;;;;;62.95;13.23;;;;;;;;;;5101690;28;20391;-82
2023/12/27 06:28:53;;;;;;;20.05;8.25;;;;;;;;;;5083550;28;21048;-81
2023/12/27 06:31:19;;;;;;;43.35;9.30;;;;;;;;;;5057972;28;20436;-82
2023/12/27 06:33:45;;;;;;;21.13;7.68;;;;;;;;;;5078681;28;20811;-82
2023/12/27 06:36:12;;;;;;;19.37;7.90;;;;;;;;;;5077177;28;20424;-82
2023/12/27 06:38:40;;;;;;;28.50;8.20;;;;;;;;;;5087144;28;20417;-81
2023/12/27 06:41:07;;;;;;;22.58;6.93;;;;;;;;;;5077084;28;20425;-80
2023/12/27 06:43:33;;;;;;;19.58;7.40;;;;;;;;;;5077793;28;20408;-80
2023/12/27 06:45:59;;;;;;;18.98;6.75;;;;;;;;;;5076230;28;20402;-80
2023/12/27 06:48:25;;;;;;;17.38;6.38;;;;;;;;;;5077355;28;20407;-80
2023/12/27 06:50:52;;;;;;;16.80;6.00;;;;;;;;;;5116224;27;20403;-79
2023/12/27 06:53:18;;;;;;;19.13;5.78;;;;;;;;;;5116788;27;20411;-81
2023/12/27 06:55:44;;;;;;;16.05;5.90;;;;;;;;;;5078386;28;20434;-81
2023/12/27 06:58:10;;;;;;;15.45;5.25;;;;;;;;;;5113569;27;20733;-81
2023/12/27 07:00:38;;;;;;;17.85;5.13;;;;;;;;;;5096084;28;20758;-81
2023/12/27 07:03:05;;;;;;;18.20;5.03;;;;;;;;;;5056470;28;20423;-81
2023/12/27 07:05:31;;;;;;;16.20;4.93;;;;;;;;;;5079838;28;20402;-80
2023/12/27 07:07:57;;;;;;;17.58;4.57;;;;;;;;;;5090292;28;20523;-82
2023/12/27 07:10:23;;;;;;;21.45;5.03;;;;;;;;;;5089305;28;20483;-82
2023/12/27 07:12:49;;;;;;;15.82;4.53;;;;;;;;;;5091894;28;20489;-82
2023/12/27 07:15:18;;;;;;;15.35;4.22;;;;;;;;;;5068646;28;20427;-82
2023/12/27 07:17:44;;;;;;;14.82;4.30;;;;;;;;;;5116180;27;20755;-83
2023/12/27 07:20:11;;;;;;;9.77;3.90;;;;;;;;;;5070764;28;20914;-84
2023/12/27 07:22:37;;;;;;;14.75;4.30;;;;;;;;;;5078944;28;20438;-83
2023/12/27 07:25:03;;;;;;;12.60;4.28;;;;;;;;;;5077955;28;20418;-81
2023/12/27 07:27:29;;;;;;;13.77;4.60;;;;;;;;;;5094595;28;20433;-83
2023/12/27 07:29:55;;;;;;;14.70;3.97;;;;;;;;;;5076882;28;20901;-83
2023/12/27 07:32:21;;;;;;;12.32;3.75;;;;;;;;;;5076128;28;20406;-83
2023/12/27 07:34:48;;;;;;;18.48;4.13;;;;;;;;;;5076439;28;20410;-83
2023/12/27 07:37:14;;;;;;;11.60;3.63;;;;;;;;;;5077287;28;20401;-83
2023/12/27 07:39:41;;;;;;;17.92;5.00;;;;;;;;;;5090876;28;20429;-82
2023/12/27 07:42:07;;;;;;;14.93;3.70;;;;;;;;;;5088492;28;20422;-84
2023/12/27 07:44:33;;;;;;;14.47;3.87;;;;;;;;;;5093481;28;20494;-83
2023/12/27 07:46:59;;;;;;;13.43;3.40;;;;;;;;;;5081013;28;20398;-83
2023/12/27 07:49:25;;;;;;;13.30;4.05;;;;;;;;;;5119852;27;20522;-83
2023/12/27 07:51:51;;;;;;;14.00;3.45;;;;;;;;;;5094842;28;20418;-82
2023/12/27 07:54:17;;;;;;;17.90;4.15;;;;;;;;;;5074626;28;20418;-83
2023/12/27 07:56:44;;;;;;;16.80;3.88;;;;;;;;;;5103746;28;20416;-83
2023/12/27 07:59:10;;;;;;;17.00;4.20;;;;;;;;;;5090289;28;20405;-83
2023/12/27 08:01:36;;;;;;;14.38;4.30;;;;;;;;;;5070243;28;20930;-82
2023/12/27 08:04:02;;;;;;;15.93;4.22;;;;;;;;;;5090977;28;20424;-82
2023/12/27 08:06:28;;;;;;;14.50;3.95;;;;;;;;;;5082845;28;20398;-83
2023/12/27 08:08:57;;;;;;;15.07;3.63;;;;;;;;;;5105257;28;20402;-82
2023/12/27 08:11:23;;;;;;;12.35;3.70;;;;;;;;;;5075883;28;20420;-82
2023/12/27 08:13:50;;;;;;;16.40;4.03;;;;;;;;;;5076376;28;20485;-82
2023/12/27 08:16:16;;;;;;;13.65;3.83;;;;;;;;;;5063069;28;20428;-80
2023/12/27 08:18:42;;;;;;;12.38;4.22;;;;;;;;;;5057530;28;20430;-83
2023/12/27 08:21:08;;;;;;;15.30;4.72;;;;;;;;;;5079689;28;20806;-83
2023/12/27 08:23:38;;;;;;;15.07;4.65;;;;;;;;;;5084323;28;20399;-83
2023/12/27 08:26:08;;;;;;;16.08;4.35;;;;;;;;;;5107192;28;20461;-83
2023/12/27 08:28:38;;;;;;;12.00;4.57;;;;;;;;;;5115623;27;20431;-83
2023/12/27 08:31:04;;;;;;;14.15;5.18;;;;;;;;;;5093266;28;20753;-82
2023/12/27 08:33:37;;;;;;;16.98;4.50;;;;;;;;;;5085854;28;20471;-82
2023/12/27 08:36:03;;;;;;;15.38;4.32;;;;;;;;;;5074539;28;20429;-82
2023/12/27 08:38:30;;;;;;;14.20;4.78;;;;;;;;;;5071658;28;20398;-82
2023/12/27 08:40:56;;;;;;;17.42;4.65;;;;;;;;;;5074715;28;20404;-81
2023/12/27 08:43:27;;;;;;;17.63;5.63;;;;;;;;;;5084828;28;20456;-81
2023/12/27 08:45:54;;;;;;;17.67;6.90;;;;;;;;;;5056891;28;20412;-81
2023/12/27 08:48:20;;;;;;;20.23;7.80;;;;;;;;;;5087665;28;20494;-79
2023/12/27 08:50:48;;;;;;;15.45;4.95;;;;;;;;;;5074458;28;20401;-78
2023/12/27 08:53:14;;;;;;;15.13;4.82;;;;;;;;;;5086964;28;20451;-77
2023/12/27 08:55:40;;;;;;;15.32;5.10;;;;;;;;;;5091469;28;20991;-77
2023/12/27 08:58:06;;;;;;;14.40;4.77;;;;;;;;;;5113511;27;20784;-77
2023/12/27 09:00:33;;;;;;;16.60;4.97;;;;;;;;;;5066774;28;20395;-77
2023/12/27 09:03:00;;;;;;;16.70;5.65;;;;;;;;;;5110741;27;20485;-77
2023/12/27 09:05:26;;;;;;;18.27;5.47;;;;;;;;;;5085271;28;20404;-76
2023/12/27 09:07:52;;;;;;;11.80;4.70;;;;;;;;;;5094399;28;21158;-77
2023/12/27 09:10:18;;;;;;;19.60;5.50;;;;;;;;;;5063536;28;20398;-77
2023/12/27 09:12:44;;;;;;;16.75;5.15;;;;;;;;;;5074377;28;20394;-77
2023/12/27 09:15:13;;;;;;;15.60;5.83;;;;;;;;;;5122696;27;20426;-77
2023/12/27 09:17:40;;;;;;;18.33;6.43;;;;;;;;;;5109112;27;20429;-77
2023/12/27 09:20:07;;;;;;;17.80;6.63;;;;;;;;;;5075713;28;20908;-80
2023/12/27 09:22:34;;;;;;;19.10;6.50;;;;;;;;;;5069264;28;20433;-79
2023/12/27 09:25:00;;;;;;;17.75;6.25;;;;;;;;;;5065245;28;20501;-80
2023/12/27 09:27:27;;;;;;;20.50;6.07;;;;;;;;;;5067130;28;20521;-78
2023/12/27 09:29:53;;;;;;;17.90;6.28;;;;;;;;;;5105235;28;20462;-79
2023/12/27 09:32:19;;;;;;;16.05;6.20;;;;;;;;;;5091202;28;20430;-82
2023/12/27 09:34:45;;;;;;;16.50;5.85;;;;;;;;;;5112125;27;20498;-82
2023/12/27 09:37:11;;;;;;;13.93;5.70;;;;;;;;;;5089418;28;20397;-80
2023/12/27 09:39:37;;;;;;;14.57;6.47;;;;;;;;;;5105685;27;20506;-82
2023/12/27 09:42:04;;;;;;;18.98;7.72;;;;;;;;;;5082690;28;20390;-81
2023/12/27 09:44:32;;;;;;;20.43;7.27;;;;;;;;;;5122220;27;20412;-81
2023/12/27 09:46:59;;;;;;;19.23;8.43;;;;;;;;;;5070005;28;20393;-82
2023/12/27 09:49:25;;;;;;;17.33;8.05;;;;;;;;;;5081106;28;20407;-82
2023/12/27 09:51:53;;;;;;;17.13;7.55;;;;;;;;;;5066514;28;20422;-81
2023/12/27 09:54:20;;;;;;;17.77;7.90;;;;;;;;;;5068378;28;20434;-82
2023/12/27 09:56:47;;;;;;;18.00;7.93;;;;;;;;;;5064424;28;20838;-81
2023/12/27 09:59:38;;;;;;;19.25;8.05;;;;;;;;;;5115796;27;20459;-81
2023/12/27 10:02:06;;;;;;;22.05;8.13;;;;;;;;;;5073336;28;20486;-87
2023/12/27 10:04:36;;;;;;;16.10;8.37;;;;;;;;;;5072668;28;20430;-83
2023/12/27 10:07:03;;;;;;;19.67;8.07;;;;;;;;;;5065633;28;20477;-83
2023/12/27 10:09:29;;;;;;;19.77;9.63;;;;;;;;;;5077814;28;20434;-84
2023/12/27 10:11:56;;;;;;;18.67;9.23;;;;;;;;;;5075155;28;20783;-84
2023/12/27 10:14:23;;;;;;;16.20;8.27;;;;;;;;;;5068328;28;20426;-84
2023/12/27 10:16:49;;;;;;;15.02;8.20;;;;;;;;;;5073078;28;20425;-82
2023/12/27 10:19:40;;;;;;;19.73;8.82;;;5.10;99.90;;;;;;5074187;28;20492;-85
2023/12/27 10:22:07;;;;;;;19.95;8.90;;;;;;;;;;5073951;28;20394;-84
2023/12/27 10:24:34;;;;;;;17.60;9.07;;;;;;;;;;5073769;28;20455;-83
2023/12/27 10:27:01;;;;;;;21.08;8.68;;;;;;;;;;5088228;28;20449;-84
2023/12/27 10:29:27;;;;;;;18.50;9.13;;;;;;;;;;5124915;28;20497;-84
2023/12/27 10:31:54;;;;;;;25.20;9.37;;;;;;;;;;5106957;28;20467;-85
2023/12/27 10:34:21;;;;;;;20.00;9.20;;;;;;;;;;5090530;28;20426;-85
2023/12/27 10:36:49;;;;;;;21.15;8.90;;;;;;;;;;5072418;28;20400;-84
2023/12/27 10:39:17;;;;;;;17.65;9.10;;;;;;;;;;5090211;28;20437;-83
2023/12/27 10:41:47;;;;;;;20.92;9.75;;;;;;;;;;5075350;28;20412;-84
2023/12/27 10:44:17;;;;;;;19.73;9.77;;;;;;;;;;5080733;28;20417;-84
2023/12/27 10:46:43;;;;;;;25.83;10.43;;;;;;;;;;5088529;28;20523;-83
2023/12/27 10:49:12;;;;;;;21.37;10.40;;;;;;;;;;5090540;28;20825;-84
2023/12/27 10:51:38;;;;;;;21.75;9.52;;;;;;;;;;5073176;28;20394;-83
2023/12/27 10:54:05;;;;;;;24.05;9.93;;;;;;;;;;5090015;28;20548;-83
2023/12/27 10:56:38;;;;;;;17.98;10.00;;;;;;;;;;5072940;28;20430;-81
2023/12/27 10:59:09;;;;;;;24.63;10.07;;;;;;;;;;5081447;28;20419;-82
2023/12/27 11:01:37;;;;;;;24.48;11.23;;;;;;;;;;5076134;28;20431;-81
2023/12/27 11:04:06;;;;;;;23.20;10.05;;;;;;;;;;5126027;27;20401;-83
2023/12/27 11:06:35;;;;;;;23.08;10.40;;;;;;;;;;5082531;28;20916;-84
2023/12/27 11:09:05;;;;;;;20.17;10.52;;;;;;;;;;5073823;28;20394;-84
2023/12/27 11:11:38;;;;;;;28.27;10.55;;;;;;;;;;5080475;28;20390;-84
2023/12/27 11:14:05;;;;;;;22.13;10.70;;;;;;;;;;5065893;28;20414;-84
2023/12/27 11:16:35;;;;;;;26.08;11.40;;;;;;;;;;5081426;28;20485;-84
2023/12/27 11:19:08;;;;;;;21.75;10.82;;;;;;;;;;5109775;28;20406;-84
2023/12/27 11:21:43;;;;;;;28.38;11.80;;;;;;;;;;5073575;28;20411;-85
2023/12/27 11:24:09;;;;;;;27.30;12.45;;;;;;;;;;5071364;28;20745;-85
2023/12/27 11:26:36;;;;;;;24.23;12.93;;;;;;;;;;5084652;28;20746;-83
2023/12/27 11:29:11;;;;;;;28.90;13.73;;;;;;;;;;5075842;28;20443;-84
2023/12/27 11:31:42;;;;;;;30.45;14.68;;;;;;;;;;5076985;28;20398;-85
2023/12/27 11:34:09;;;;;;;29.05;13.90;;;;;;;;;;5075977;28;20430;-86
2023/12/27 11:36:35;;;;;;;85.50;22.60;;;;;;;;;;5121584;27;20449;-84
2023/12/27 11:39:03;;;;;;;81.35;18.85;;;;;;;;;;5101216;28;20480;-84
2023/12/27 11:41:30;;;;;;;58.03;18.70;;;;;;;;;;5093295;28;20447;-86
2023/12/27 11:44:06;;;;;;;30.27;15.60;;;;;;;;;;5075977;28;21456;-87
2023/12/27 11:46:32;;;;;;;33.97;15.93;;;;;;;;;;5074417;28;20437;-86
2023/12/27 11:48:59;;;;;;;36.15;16.42;;;;;;;;;;5093621;28;20876;-84
2023/12/27 11:51:29;;;;;;;165.90;26.42;;;;;;;;;;5088488;28;20817;-83
2023/12/27 11:53:56;;;;;;;37.92;17.83;;;;;;;;;;5078131;28;20455;-82
2023/12/27 11:56:22;;;;;;;37.72;18.45;;;;;;;;;;5091511;28;20414;-82
2023/12/27 11:58:49;;;;;;;33.55;20.10;;;;;;;;;;5083922;28;20388;-85
2023/12/27 12:01:24;;;;;;;127.53;26.52;;;;;;;;;;5117835;27;20404;-87
2023/12/27 12:04:06;;;;;;;32.95;19.95;;;;;;;;;;5095635;28;20914;-83
2023/12/27 12:06:51;;;;;;;32.72;19.83;;;;;;;;;;5074530;28;20407;-83
2023/12/27 12:09:17;;;;;;;34.10;17.77;;;;;;;;;;5090565;28;20428;-82
2023/12/27 12:11:47;;;;;;;92.18;21.33;;;;;;;;;;5064702;28;20752;-82
2023/12/27 12:14:13;;;;;;;30.88;19.92;;;;;;;;;;5100055;27;20406;-81
2023/12/27 12:16:39;;;;;;;36.08;18.67;;;;;;;;;;5093981;28;20404;-81
2023/12/27 12:19:08;;;;;;;34.67;19.15;;;;;;;;;;5092184;28;20422;-83
2023/12/27 12:21:34;;;;;;;98.43;24.10;;;;;;;;;;5108615;28;20741;-81
2023/12/27 12:24:10;;;;;;;30.60;19.73;;;;;;;;;;5099203;27;20469;-82
2023/12/27 12:26:36;;;;;;;34.25;21.60;;;;;;;;;;5087550;28;20785;-82
2023/12/27 12:29:07;;;;;;;32.33;19.85;;;;;;;;;;5061934;28;20426;-82
2023/12/27 12:31:34;;;;;;;221.05;33.25;;;;;;;;;;5075060;28;20401;-82
2023/12/27 12:34:00;;;;;;;33.85;20.10;;;;;;;;;;5080807;28;20739;-81
2023/12/27 12:36:26;;;;;;;34.08;19.65;;;;;;;;;;5074223;28;20939;-81
2023/12/27 12:38:53;;;;;;;35.38;20.20;;;;;;;;;;5069367;28;21012;-82
2023/12/27 12:41:19;;;;;;;69.57;23.73;;;;;;;;;;5071119;28;20748;-81
2023/12/27 12:43:45;;;;;;;33.00;20.08;;;;;;;;;;5092368;28;20455;-82
2023/12/27 12:46:13;;;;;;;36.45;21.63;;;;;;;;;;5064072;28;20430;-82
2023/12/27 12:48:40;;;;;;;38.47;22.10;;;;;;;;;;5072388;28;20462;-82
2023/12/27 12:51:15;;;;;;;72.78;26.05;;;;;;;;;;5087075;28;20921;-79
2023/12/27 12:53:41;;;;;;;39.13;22.40;;;;;;;;;;5081783;28;20449;-79
2023/12/27 12:56:08;;;;;;;43.22;24.17;;;;;;;;;;5086091;28;20429;-81
2023/12/27 12:58:39;;;;;;;43.77;24.27;;;;;;;;;;5089240;28;20405;-82
2023/12/27 13:01:05;;;;;;;93.57;26.52;;;;;;;;;;5115700;27;20470;-79
2023/12/27 13:03:43;;;;;;;43.72;24.05;;;;;;;;;;5079576;28;20421;-80
2023/12/27 13:06:13;;;;;;;40.35;23.88;;;;;;;;;;5072526;28;20421;-79
2023/12/27 13:08:39;;;;;;;44.75;24.98;;;;;;;;;;5073737;28;20439;-80
2023/12/27 13:11:06;;;;;;;47.75;24.95;;;;;;;;;;5081813;28;20796;-79
2023/12/27 13:13:32;;;;;;;43.03;26.08;;;;;;;;;;5081070;28;20401;-79
2023/12/27 13:15:58;;;;;;;44.83;24.98;;;;;;;;;;5095643;28;20499;-80
2023/12/27 13:18:26;;;;;;;43.47;25.20;;;;;;;;;;5087640;28;20422;-80
2023/12/27 13:20:53;;;;;;;45.83;25.38;;;;;;;;;;5066898;28;20920;-80
2023/12/27 13:23:19;;;;;;;45.08;25.98;;;;;;;;;;5079712;28;20429;-80
2023/12/27 13:25:46;;;;;;;44.33;26.10;;;;;;;;;;5088247;28;20467;-80
2023/12/27 13:28:12;;;;;;;47.53;25.42;;;;;;;;;;5062773;28;20400;-80
2023/12/27 13:30:40;;;;;;;42.13;25.15;;;;;;;;;;5088778;28;20451;-79
2023/12/27 13:33:06;;;;;;;49.58;26.65;;;;;;;;;;5057931;28;20407;-82
2023/12/27 13:35:32;;;;;;;50.40;27.42;;;;;;;;;;5074109;28;20931;-83
2023/12/27 13:37:59;;;;;;;44.70;27.65;;;;;;;;;;5085410;28;20805;-82
2023/12/27 13:40:25;;;;;;;45.70;25.87;;;;;;;;;;5078834;28;20491;-85
2023/12/27 13:42:51;;;;;;;103.97;32.17;;;;;;;;;;5078563;28;20406;-82
2023/12/27 13:45:18;;;;;;;48.08;27.30;;;;;;;;;;5079511;28;20809;-85
2023/12/27 13:47:44;;;;;;;47.42;26.33;;;;;;;;;;5070595;28;20426;-84
2023/12/27 13:50:10;;;;;;;47.50;26.85;;;;;;;;;;5087305;28;20398;-85
2023/12/27 13:52:36;;;;;;;83.60;29.70;;;;;;;;;;5082074;28;20407;-84
2023/12/27 13:55:02;;;;;;;48.08;26.88;;;;;;;;;;5072540;28;20532;-84
2023/12/27 13:57:28;;;;;;;46.13;26.70;;;;;;;;;;5121687;27;20403;-84
2023/12/27 13:59:54;;;;;;;46.30;27.02;;;;;;;;;;5076414;28;20390;-84
2023/12/27 14:02:20;;;;;;;58.03;29.30;;;;;;;;;;5076936;28;20486;-83
2023/12/27 14:04:49;;;;;;;46.33;27.00;;;;;;;;;;5088376;28;20751;-83
2023/12/27 14:07:15;;;;;;;44.15;28.10;;;;;;;;;;5073771;28;20446;-83
2023/12/27 14:09:41;;;;;;;47.60;27.98;;;;;;;;;;5080892;28;20442;-83
2023/12/27 14:12:07;;;;;;;49.92;29.63;;;;;;;;;;5072602;28;20402;-84
2023/12/27 14:14:34;;;;;;;46.17;28.83;;;;;;;;;;5071053;28;20417;-84
2023/12/27 14:17:00;;;;;;;43.80;26.65;;;;;;;;;;5066578;28;20417;-84
2023/12/27 14:19:26;;;;;;;44.63;27.23;;;;;;;;;;5044212;28;20814;-83
2023/12/27 14:21:52;;;;;;;47.60;26.88;;;;;;;;;;5046211;28;20401;-83